KGAG/GAG METAR and TAF weather

Enter ICAO airport designator
Station Type Date Time Source
KGAG METAR 2020/04/10 19:53 UTC NOAA

KGAG 101953Z AUTO 20020G27KT 10SM OVC060 21/00 A3001 RMK AO2 PK WND 21027/1950 SLP154 T02060000


Station Type Date Time Source
KGAG Decoded METAR 2020/04/10 19:53 UTC NOAA

GAGE AIRPORT, OK, United States (KGAG) 36-18N 99-46W 668M
Apr 10, 2020 - 03:53 PM EDT / 2020.04.10 1953 UTC
Wind: from the SSW (200 degrees) at 23 MPH (20 KT) gusting to 31 MPH (27 KT):0
Visibility: 10 mile(s):0
Sky conditions: overcast
Temperature: 69.1 F (20.6 C)
Dew Point: 32.0 F (0.0 C)
Relative Humidity: 25%
Pressure (altimeter): 30.01 in. Hg (1016 hPa)
ob: KGAG 101953Z AUTO 20020G27KT 10SM OVC060 21/00 A3001 RMK AO2 PK WND 21027/1950 SLP154 T02060000
cycle: 20

Station Type Date Time Source
KGAG TAF 2018/03/21 06:22 UTC NOAA

TAF KGAG 210520Z 2106/2206 VRB04KT P6SM SCT250
FM211300 16008KT P6SM SCT250
FM211800 18012G22KT P6SM BKN250

Example: see airport list